createdAt,value
2022-10-23T00:01:16.507Z,7.26
2022-10-23T00:03:43.670Z,5.91
2022-10-23T00:06:11.400Z,7.22
2022-10-23T00:08:38.371Z,6.84
2022-10-23T00:11:13.903Z,6.44
2022-10-23T00:13:40.951Z,7.06
2022-10-23T00:16:08.901Z,7.21
2022-10-23T00:18:35.882Z,7.27
2022-10-23T00:21:02.747Z,7.32
2022-10-23T00:23:29.546Z,7.12
2022-10-23T00:25:56.264Z,6.30
2022-10-23T00:28:22.997Z,7.31
2022-10-23T00:30:49.662Z,7.30
2022-10-23T00:33:16.368Z,7.25
2022-10-23T00:35:43.679Z,7.00
2022-10-23T00:38:12.551Z,7.15
2022-10-23T00:40:40.581Z,6.69
2022-10-23T00:43:13.141Z,7.23
2022-10-23T00:45:39.784Z,7.10
2022-10-23T00:48:06.423Z,7.29
2022-10-23T00:50:33.600Z,6.41
2022-10-23T00:53:03.313Z,7.32
2022-10-23T00:55:31.957Z,6.52
2022-10-23T00:57:58.865Z,6.88
2022-10-23T01:00:29.331Z,7.00
2022-10-23T01:02:57.431Z,5.62
2022-10-23T01:05:31.506Z,7.08
2022-10-23T01:08:16.082Z,6.68
2022-10-23T01:10:45.448Z,7.11
2022-10-23T01:13:16.915Z,7.12
2022-10-23T01:15:52.739Z,6.42
2022-10-23T01:18:44.398Z,7.00
2022-10-23T01:21:11.005Z,7.00
2022-10-23T01:23:48.340Z,7.05
2022-10-23T01:26:50.364Z,7.10
2022-10-23T01:29:29.315Z,7.17
2022-10-23T01:32:09.634Z,7.23
2022-10-23T01:35:03.699Z,7.23
2022-10-23T01:38:03.764Z,6.98
2022-10-23T01:40:41.445Z,5.59
2022-10-23T01:43:17.311Z,6.93
2022-10-23T01:45:50.775Z,7.01
2022-10-23T01:48:26.020Z,5.94
2022-10-23T01:50:55.904Z,6.93
2022-10-23T01:53:26.474Z,7.20
2022-10-23T01:55:55.542Z,6.33
2022-10-23T01:58:26.776Z,7.13
2022-10-23T02:00:59.535Z,6.56
2022-10-23T02:03:29.361Z,6.50
2022-10-23T02:05:56.105Z,6.20
2022-10-23T02:08:23.042Z,7.16
2022-10-23T02:11:11.317Z,7.23
2022-10-23T02:14:05.355Z,6.52
2022-10-23T02:16:46.371Z,7.29
2022-10-23T02:19:28.850Z,6.81
2022-10-23T02:22:27.796Z,6.99
2022-10-23T02:25:03.629Z,7.19
2022-10-23T02:27:42.406Z,6.95
2022-10-23T02:30:12.743Z,6.55
2022-10-23T02:32:48.982Z,7.24
2022-10-23T02:35:21.256Z,7.22
2022-10-23T02:37:57.370Z,7.28
2022-10-23T02:40:47.273Z,6.58
2022-10-23T02:43:20.859Z,6.08
2022-10-23T02:45:59.822Z,7.21
2022-10-23T02:48:37.244Z,7.18
2022-10-23T02:51:22.551Z,7.19
2022-10-23T02:54:06.699Z,5.79
2022-10-23T02:56:41.897Z,6.91
2022-10-23T02:59:08.600Z,7.32
2022-10-23T03:01:48.949Z,7.32
2022-10-23T03:04:18.473Z,6.48
2022-10-23T03:06:46.020Z,6.66
2022-10-23T03:09:16.775Z,5.83
2022-10-23T03:11:43.453Z,7.15
2022-10-23T03:14:12.504Z,6.41
2022-10-23T03:16:39.545Z,6.58
2022-10-23T03:19:06.218Z,6.90
2022-10-23T03:21:32.912Z,5.97
2022-10-23T03:23:59.586Z,6.55
2022-10-23T03:26:32.585Z,6.82
2022-10-23T03:28:59.349Z,6.39
2022-10-23T03:31:26.150Z,6.77
2022-10-23T03:33:56.753Z,6.01
2022-10-23T03:36:23.623Z,6.71
2022-10-23T03:38:50.279Z,6.78
2022-10-23T03:41:16.942Z,6.71
2022-10-23T03:43:43.831Z,6.37
2022-10-23T03:46:12.859Z,6.95
2022-10-23T03:48:39.772Z,6.92
2022-10-23T03:51:06.754Z,6.45
2022-10-23T03:53:33.923Z,5.98
2022-10-23T03:56:03.048Z,6.73
2022-10-23T03:58:31.467Z,6.76
2022-10-23T04:00:58.506Z,6.83
2022-10-23T04:03:25.260Z,6.89
2022-10-23T04:05:52.409Z,6.46
2022-10-23T04:08:21.416Z,6.76
2022-10-23T04:10:51.006Z,6.34
2022-10-23T04:13:21.110Z,6.53
2022-10-23T04:15:49.382Z,5.23
2022-10-23T04:18:17.259Z,6.51
2022-10-23T04:20:44.551Z,6.66
2022-10-23T04:23:11.274Z,6.39
2022-10-23T04:25:41.112Z,6.54
2022-10-23T04:28:08.395Z,6.13
2022-10-23T04:30:38.337Z,5.81
2022-10-23T04:33:06.705Z,6.75
2022-10-23T04:35:33.575Z,6.72
2022-10-23T04:38:00.219Z,7.00
2022-10-23T04:40:26.955Z,7.05
2022-10-23T04:42:54.719Z,6.48
2022-10-23T04:45:21.931Z,5.68
2022-10-23T04:47:48.622Z,6.54
2022-10-23T04:50:15.626Z,7.07
2022-10-23T04:53:00.835Z,6.13
2022-10-23T04:55:50.945Z,7.00
2022-10-23T04:58:34.469Z,6.46
2022-10-23T05:01:02.316Z,7.00
2022-10-23T05:03:29.384Z,5.90
2022-10-23T05:05:56.803Z,7.18
2022-10-23T05:08:45.901Z,6.86
2022-10-23T05:11:39.404Z,7.45
2022-10-23T05:14:08.315Z,7.50
2022-10-23T05:16:46.211Z,6.64
2022-10-23T05:19:23.418Z,7.28
2022-10-23T05:21:55.790Z,7.28
2022-10-23T05:24:26.675Z,7.30
2022-10-23T05:27:00.002Z,6.53
2022-10-23T05:29:30.368Z,6.80
2022-10-23T05:32:02.462Z,7.33
2022-10-23T05:34:35.130Z,6.98
2022-10-23T05:37:03.977Z,6.84
2022-10-23T05:39:35.615Z,7.13
2022-10-23T05:42:06.019Z,7.07
2022-10-23T05:44:32.692Z,6.33
2022-10-23T05:47:17.674Z,6.07
2022-10-23T05:49:59.132Z,7.07
2022-10-23T05:52:46.472Z,6.95
2022-10-23T05:55:28.956Z,7.17
2022-10-23T05:58:16.703Z,7.27
2022-10-23T06:01:17.420Z,6.78
2022-10-23T06:04:04.891Z,7.27
2022-10-23T06:06:54.180Z,6.39
2022-10-23T06:09:21.138Z,7.32
2022-10-23T06:11:52.400Z,7.26
2022-10-23T06:14:22.207Z,6.33
2022-10-23T06:16:51.074Z,7.18
2022-10-23T06:19:18.716Z,7.09
2022-10-23T06:21:46.686Z,7.12
2022-10-23T06:24:14.806Z,7.13
2022-10-23T06:26:47.441Z,7.24
2022-10-23T06:29:52.225Z,7.40
2022-10-23T06:32:19.627Z,7.44
2022-10-23T06:34:58.784Z,7.44
2022-10-23T06:37:25.921Z,6.37
2022-10-23T06:40:06.178Z,5.98
2022-10-23T06:42:51.175Z,6.10
2022-10-23T06:45:39.828Z,5.35
2022-10-23T06:48:12.614Z,7.13
2022-10-23T06:50:59.789Z,6.73
2022-10-23T06:53:36.749Z,7.63
2022-10-23T06:56:29.299Z,7.64
2022-10-23T06:58:56.815Z,6.86
2022-10-23T07:01:24.065Z,6.74
2022-10-23T07:03:51.040Z,7.57
2022-10-23T07:06:22.264Z,7.57
2022-10-23T07:08:49.680Z,7.58
2022-10-23T07:11:35.245Z,7.71
2022-10-23T07:14:02.046Z,6.51
2022-10-23T07:16:28.784Z,6.24
2022-10-23T07:18:59.637Z,7.58
2022-10-23T07:21:30.050Z,8.23
2022-10-23T07:24:08.090Z,7.99
2022-10-23T07:26:38.936Z,7.93
2022-10-23T07:29:05.759Z,7.37
2022-10-23T07:31:33.991Z,7.98
2022-10-23T07:34:33.167Z,8.15
2022-10-23T07:37:24.445Z,7.66
2022-10-23T07:39:51.444Z,8.12
2022-10-23T07:42:18.312Z,8.00
2022-10-23T07:44:45.680Z,8.23
2022-10-23T07:47:12.712Z,7.58
2022-10-23T07:49:43.559Z,8.30
2022-10-23T07:52:11.255Z,8.40
2022-10-23T07:54:58.114Z,8.13
2022-10-23T07:57:28.297Z,8.60
2022-10-23T08:00:02.131Z,8.41
2022-10-23T08:02:29.791Z,6.99
2022-10-23T08:04:56.583Z,8.38
2022-10-23T08:07:27.599Z,8.43
2022-10-23T08:09:56.653Z,8.46
2022-10-23T08:12:23.597Z,8.14
2022-10-23T08:14:50.457Z,8.36
2022-10-23T08:17:17.947Z,7.56
2022-10-23T08:20:13.636Z,4.43
2022-10-23T08:22:42.488Z,7.97
2022-10-23T08:25:10.302Z,8.57
2022-10-23T08:27:38.241Z,8.85
2022-10-23T08:30:06.098Z,8.37
2022-10-23T08:32:32.969Z,9.02
2022-10-23T08:35:01.808Z,8.54
2022-10-23T08:37:31.321Z,8.21
2022-10-23T08:39:58.295Z,9.05
2022-10-23T08:42:51.745Z,9.31
2022-10-23T08:45:31.078Z,8.98
2022-10-23T08:48:33.029Z,9.53
2022-10-23T08:51:29.900Z,8.81
2022-10-23T08:54:03.003Z,8.58
2022-10-23T08:56:38.005Z,9.44
2022-10-23T08:59:20.192Z,8.00
2022-10-23T09:01:52.409Z,9.30
2022-10-23T09:04:19.450Z,9.04
2022-10-23T09:06:59.994Z,8.22
2022-10-23T09:09:32.677Z,9.20
2022-10-23T09:12:09.591Z,9.27
2022-10-23T09:15:13.847Z,9.22
2022-10-23T09:17:43.569Z,9.24
2022-10-23T09:20:18.247Z,9.38
2022-10-23T09:22:46.044Z,9.59
2022-10-23T09:25:29.129Z,9.59
2022-10-23T09:28:01.370Z,9.06
2022-10-23T09:30:35.955Z,9.37
2022-10-23T09:33:22.292Z,9.31
2022-10-23T09:35:54.976Z,9.38
2022-10-23T09:38:37.733Z,9.45
2022-10-23T09:41:29.446Z,9.53
2022-10-23T09:44:08.046Z,9.59
2022-10-23T09:49:25.598Z,9.71
2022-10-23T09:52:05.066Z,9.44
2022-10-23T09:54:38.615Z,8.84
2022-10-23T09:57:30.244Z,9.29
2022-10-23T10:00:01.341Z,8.86
2022-10-23T10:02:38.995Z,9.68
2022-10-23T10:05:39.466Z,9.26
2022-10-23T10:08:26.243Z,9.58
2022-10-23T10:11:33.715Z,9.32
2022-10-23T10:14:12.651Z,9.24
2022-10-23T10:16:51.912Z,9.38
2022-10-23T10:19:40.330Z,9.50
2022-10-23T10:22:41.950Z,9.57
2022-10-23T10:25:23.858Z,9.51
2022-10-23T10:28:27.356Z,9.45
2022-10-23T10:31:09.329Z,9.21
2022-10-23T10:34:02.734Z,9.21
2022-10-23T10:37:06.134Z,7.83
2022-10-23T10:40:12.269Z,9.36
2022-10-23T10:43:10.194Z,9.33
2022-10-23T10:45:59.095Z,9.41
2022-10-23T10:48:58.972Z,9.36
2022-10-23T10:51:43.542Z,8.26
2022-10-23T10:54:27.875Z,8.65
2022-10-23T10:57:01.195Z,7.48
2022-10-23T10:59:36.209Z,9.41
2022-10-23T11:02:22.249Z,9.51
2022-10-23T11:05:00.685Z,9.33
2022-10-23T11:07:38.408Z,9.54
2022-10-23T11:10:18.416Z,8.25
2022-10-23T11:12:47.675Z,9.43
2022-10-23T11:15:16.837Z,9.64
2022-10-23T11:17:59.841Z,9.51
2022-10-23T11:20:51.521Z,9.28
2022-10-23T11:23:48.616Z,9.84
2022-10-23T11:26:36.919Z,9.81
2022-10-23T11:29:16.501Z,9.79
2022-10-23T11:31:54.282Z,9.75
2022-10-23T11:34:42.190Z,9.74
2022-10-23T11:37:09.415Z,9.74
2022-10-23T11:39:39.728Z,9.74
2022-10-23T11:42:10.424Z,9.74
2022-10-23T11:44:44.821Z,9.82
2022-10-23T11:47:38.973Z,9.84
2022-10-23T11:50:08.040Z,9.89
2022-10-23T11:52:45.555Z,9.93
2022-10-23T11:55:30.855Z,9.96
2022-10-23T11:58:20.415Z,9.94
2022-10-23T12:01:07.681Z,9.29
2022-10-23T12:03:49.719Z,9.77
2022-10-23T12:06:25.917Z,8.47
2022-10-23T12:08:56.449Z,10.12
2022-10-23T12:11:46.875Z,10.00
2022-10-23T12:14:27.529Z,10.24
2022-10-23T12:16:55.892Z,9.85
2022-10-23T12:19:25.262Z,10.32
2022-10-23T12:21:54.825Z,10.47
2022-10-23T12:24:40.218Z,10.41
2022-10-23T12:27:37.829Z,10.52
2022-10-23T12:30:42.442Z,10.52
2022-10-23T12:33:33.022Z,10.59
2022-10-23T12:36:15.891Z,10.66
2022-10-23T12:38:45.941Z,10.73
2022-10-23T12:41:16.331Z,10.70
2022-10-23T12:43:53.337Z,10.18
2022-10-23T12:46:41.671Z,10.54
2022-10-23T12:49:16.700Z,9.50
2022-10-23T12:51:45.163Z,10.60
2022-10-23T12:54:20.361Z,10.63
2022-10-23T12:56:49.106Z,10.40
2022-10-23T12:59:23.836Z,10.50
2022-10-23T13:01:52.933Z,10.74
2022-10-23T13:04:27.033Z,10.77
2022-10-23T13:06:56.068Z,10.11
2022-10-23T13:09:35.167Z,8.96
2022-10-23T13:12:27.354Z,10.07
2022-10-23T13:14:55.846Z,10.79
2022-10-23T13:17:34.197Z,10.87
2022-10-23T13:20:21.717Z,10.94
2022-10-23T13:22:55.261Z,10.99
2022-10-23T13:25:35.004Z,11.04
2022-10-23T13:28:18.045Z,10.06
2022-10-23T13:30:48.578Z,10.78
2022-10-23T13:33:21.105Z,11.13
2022-10-23T13:35:58.834Z,11.10
2022-10-23T13:38:38.423Z,11.11
2022-10-23T13:41:13.407Z,10.50
2022-10-23T13:43:40.277Z,10.50
2022-10-23T13:46:14.042Z,10.94
2022-10-23T13:48:40.802Z,11.13
2022-10-23T13:51:16.657Z,11.11
2022-10-23T13:53:43.819Z,10.40
2022-10-23T13:56:12.930Z,11.15
2022-10-23T13:58:39.831Z,8.38
2022-10-23T14:01:12.882Z,10.28
2022-10-23T14:03:39.796Z,10.99
2022-10-23T14:06:06.752Z,11.14
2022-10-23T14:08:33.490Z,10.99
2022-10-23T14:11:00.483Z,11.20
2022-10-23T14:13:27.199Z,10.46
2022-10-23T14:15:54.605Z,11.21
2022-10-23T14:18:22.122Z,10.60
2022-10-23T14:20:49.189Z,11.15
2022-10-23T14:23:15.977Z,9.00
2022-10-23T14:25:42.857Z,10.17
2022-10-23T14:28:09.584Z,10.96
2022-10-23T14:30:37.644Z,10.95
2022-10-23T14:33:04.951Z,11.19
2022-10-23T14:35:31.947Z,11.15
2022-10-23T14:37:59.227Z,10.32
2022-10-23T14:40:26.312Z,11.15
2022-10-23T14:42:53.165Z,11.15
2022-10-23T14:45:19.946Z,10.85
2022-10-23T14:47:46.909Z,11.03
2022-10-23T14:50:15.301Z,11.05
2022-10-23T14:52:42.005Z,10.78
2022-10-23T14:55:09.172Z,11.05
2022-10-23T14:57:35.971Z,10.42
2022-10-23T15:00:05.136Z,10.79
2022-10-23T15:02:33.562Z,10.90
2022-10-23T15:05:00.423Z,10.57
2022-10-23T15:07:30.518Z,10.93
2022-10-23T15:09:57.645Z,10.80
2022-10-23T15:12:24.606Z,10.94
2022-10-23T15:14:51.523Z,10.94
2022-10-23T15:17:18.294Z,10.09
2022-10-23T15:19:45.253Z,10.13
2022-10-23T15:22:12.000Z,10.63
2022-10-23T15:24:38.841Z,10.77
2022-10-23T15:27:06.935Z,10.77
2022-10-23T15:29:33.749Z,10.14
2022-10-23T15:32:01.843Z,9.83
2022-10-23T15:34:30.101Z,10.40
2022-10-23T15:36:57.725Z,10.54
2022-10-23T15:39:27.999Z,10.46
2022-10-23T15:41:57.341Z,10.23
2022-10-23T15:44:26.778Z,10.40
2022-10-23T15:46:54.292Z,10.37
2022-10-23T15:49:22.186Z,10.37
2022-10-23T15:51:49.216Z,10.39
2022-10-23T15:54:20.216Z,10.38
2022-10-23T15:56:49.616Z,10.16
2022-10-23T15:59:17.777Z,10.40
2022-10-23T16:01:44.803Z,10.19
2022-10-23T16:04:11.820Z,10.43
2022-10-23T16:06:38.974Z,10.46
2022-10-23T16:09:05.974Z,10.48
2022-10-23T16:11:36.202Z,10.49
2022-10-23T16:14:04.287Z,10.50
2022-10-23T16:16:33.375Z,10.54
2022-10-23T16:19:01.789Z,10.60
2022-10-23T16:21:31.759Z,10.61
2022-10-23T16:24:00.609Z,10.60
2022-10-23T16:26:31.590Z,10.36
2022-10-23T16:29:00.629Z,10.62
2022-10-23T16:31:28.171Z,10.64
2022-10-23T16:34:00.266Z,10.44
2022-10-23T16:36:28.321Z,10.13
2022-10-23T16:39:09.769Z,10.55
2022-10-23T16:42:15.093Z,10.39
2022-10-23T16:44:53.241Z,10.77
2022-10-23T16:47:19.995Z,10.71
2022-10-23T16:49:49.485Z,10.76
2022-10-23T16:52:16.423Z,10.77
2022-10-23T16:54:44.119Z,10.75
2022-10-23T16:57:10.816Z,10.74
2022-10-23T16:59:37.620Z,9.31
2022-10-23T17:02:04.946Z,10.69
2022-10-23T17:04:32.894Z,10.68
2022-10-23T17:06:59.603Z,8.83
2022-10-23T17:09:29.749Z,9.91
2022-10-23T17:11:56.672Z,8.35
2022-10-23T17:14:28.915Z,9.76
2022-10-23T17:17:07.798Z,10.16
2022-10-23T17:19:44.996Z,9.50
2022-10-23T17:22:13.421Z,10.36
2022-10-23T17:24:41.620Z,10.32
2022-10-23T17:27:08.414Z,9.78
2022-10-23T17:29:35.297Z,10.04
2022-10-23T17:32:02.042Z,9.90
2022-10-23T17:34:28.799Z,10.23
2022-10-23T17:36:56.041Z,10.18
2022-10-23T17:39:26.033Z,9.78
2022-10-23T17:41:52.911Z,9.92
2022-10-23T17:44:20.058Z,9.89
2022-10-23T17:46:52.206Z,9.88
2022-10-23T17:49:19.481Z,9.82
2022-10-23T17:51:46.106Z,10.00
2022-10-23T17:54:13.014Z,9.94
2022-10-23T17:56:40.722Z,9.36
2022-10-23T17:59:12.388Z,9.71
2022-10-23T18:01:40.114Z,9.84
2022-10-23T18:04:08.175Z,9.82
2022-10-23T18:06:37.666Z,9.44
2022-10-23T18:09:05.324Z,9.29
2022-10-23T18:11:36.551Z,9.41
2022-10-23T18:14:05.629Z,9.55
2022-10-23T18:16:33.522Z,9.57
2022-10-23T18:19:01.297Z,9.73
2022-10-23T18:21:28.415Z,9.69
2022-10-23T18:23:58.027Z,9.27
2022-10-23T18:26:28.486Z,8.56
2022-10-23T18:28:57.588Z,9.62
2022-10-23T18:31:26.987Z,9.63
2022-10-23T18:34:04.368Z,9.07
2022-10-23T18:36:36.614Z,9.62
2022-10-23T18:39:08.149Z,9.19
2022-10-23T18:41:39.103Z,9.65
2022-10-23T18:44:06.517Z,9.47
2022-10-23T18:46:34.261Z,9.10
2022-10-23T18:49:01.523Z,9.67
2022-10-23T18:51:32.470Z,9.68
2022-10-23T18:54:09.158Z,9.64
2022-10-23T18:56:36.157Z,8.98
2022-10-23T18:59:04.990Z,8.96
2022-10-23T19:01:32.364Z,8.82
2022-10-23T19:04:01.038Z,9.09
2022-10-23T19:06:29.051Z,8.01
2022-10-23T19:08:56.158Z,9.44
2022-10-23T19:11:28.491Z,9.43
2022-10-23T19:13:55.910Z,8.86
2022-10-23T19:16:44.296Z,9.02
2022-10-23T19:19:22.625Z,9.45
2022-10-23T19:21:50.330Z,7.99
2022-10-23T19:24:25.557Z,9.44
2022-10-23T19:26:52.631Z,9.42
2022-10-23T19:29:23.379Z,8.49
2022-10-23T19:31:50.348Z,9.41
2022-10-23T19:34:20.177Z,9.41
2022-10-23T19:36:48.238Z,9.39
2022-10-23T19:39:15.109Z,9.36
2022-10-23T19:41:41.853Z,9.38
2022-10-23T19:44:08.835Z,9.41
2022-10-23T19:46:38.980Z,9.48
2022-10-23T19:49:06.465Z,9.59
2022-10-23T19:51:33.361Z,9.65
2022-10-23T19:54:00.388Z,9.24
2022-10-23T19:56:27.584Z,9.17
2022-10-23T19:58:55.917Z,7.90
2022-10-23T20:01:25.532Z,9.36
2022-10-23T20:03:57.671Z,8.24
2022-10-23T20:06:27.597Z,9.43
2022-10-23T20:08:55.596Z,9.58
2022-10-23T20:11:26.184Z,9.57
2022-10-23T20:13:52.726Z,9.53
2022-10-23T20:16:23.724Z,8.80
2022-10-23T20:18:51.627Z,8.87
2022-10-23T20:21:18.956Z,9.33
2022-10-23T20:23:46.010Z,9.28
2022-10-23T20:26:16.072Z,8.82
2022-10-23T20:28:46.944Z,9.43
2022-10-23T20:31:14.997Z,9.44
2022-10-23T20:33:42.040Z,9.25
2022-10-23T20:36:20.430Z,9.40
2022-10-23T20:38:47.239Z,9.39
2022-10-23T20:41:14.214Z,8.23
2022-10-23T20:43:41.026Z,9.26
2022-10-23T20:46:09.681Z,8.66
2022-10-23T20:48:41.314Z,8.67
2022-10-23T20:51:11.082Z,9.09
2022-10-23T20:53:38.699Z,9.26
2022-10-23T20:56:11.959Z,8.39
2022-10-23T20:58:41.958Z,9.16
2022-10-23T21:01:12.532Z,9.12
2022-10-23T21:03:39.463Z,8.91
2022-10-23T21:06:14.682Z,8.95
2022-10-23T21:08:41.752Z,8.97
2022-10-23T21:11:12.275Z,8.55
2022-10-23T21:13:39.262Z,8.66
2022-10-23T21:16:18.733Z,5.44
2022-10-23T21:18:46.868Z,9.16
2022-10-23T21:21:19.435Z,8.41
2022-10-23T21:23:47.819Z,8.85
2022-10-23T21:26:15.263Z,8.09
2022-10-23T21:28:55.701Z,9.03
2022-10-23T21:31:33.117Z,8.72
2022-10-23T21:33:59.892Z,9.05
2022-10-23T21:36:29.256Z,9.03
2022-10-23T21:38:59.178Z,8.99
2022-10-23T21:41:31.666Z,9.01
2022-10-23T21:44:01.443Z,9.05
2022-10-23T21:46:30.024Z,8.57
2022-10-23T21:48:59.519Z,8.43
2022-10-23T21:51:30.195Z,9.07
2022-10-23T21:53:58.364Z,6.18
2022-10-23T21:56:39.853Z,7.50
2022-10-23T21:59:12.983Z,8.31
2022-10-23T22:01:41.504Z,8.78
2022-10-23T22:04:10.161Z,8.28
2022-10-23T22:06:37.820Z,8.43
2022-10-23T22:09:06.147Z,8.46
2022-10-23T22:11:34.650Z,9.11
2022-10-23T22:14:02.039Z,9.11
2022-10-23T22:16:35.077Z,8.91
2022-10-23T22:19:02.931Z,9.20
2022-10-23T22:21:33.181Z,9.23
2022-10-23T22:24:01.463Z,9.07
2022-10-23T22:26:40.442Z,7.88
2022-10-23T22:29:14.271Z,9.24
2022-10-23T22:31:48.858Z,9.26
2022-10-23T22:37:11.974Z,8.61
2022-10-23T22:39:39.798Z,9.44
2022-10-23T22:42:07.274Z,8.93
2022-10-23T22:44:35.226Z,9.55
2022-10-23T22:47:08.327Z,9.63
2022-10-23T22:49:35.614Z,9.65
2022-10-23T22:52:02.594Z,8.26
2022-10-23T22:54:31.581Z,9.75
2022-10-23T22:56:58.917Z,9.80
2022-10-23T22:59:25.796Z,9.64
2022-10-23T23:01:52.866Z,9.85
2022-10-23T23:04:37.454Z,9.87
2022-10-23T23:07:11.078Z,9.74
2022-10-23T23:09:42.631Z,9.88
2022-10-23T23:12:11.930Z,9.85
2022-10-23T23:14:39.958Z,9.82
2022-10-23T23:17:08.557Z,9.82
2022-10-23T23:19:35.958Z,9.81
2022-10-23T23:22:03.648Z,9.83
2022-10-23T23:24:30.777Z,9.85
2022-10-23T23:26:57.646Z,9.29
2022-10-23T23:29:24.437Z,9.86
2022-10-23T23:31:51.281Z,9.65
2022-10-23T23:34:18.012Z,9.89
2022-10-23T23:36:44.950Z,9.30
2022-10-23T23:39:11.786Z,9.79
2022-10-23T23:41:38.578Z,9.57
2022-10-23T23:44:05.551Z,9.81
2022-10-23T23:46:32.392Z,9.37
2022-10-23T23:48:59.172Z,9.13
2022-10-23T23:51:26.650Z,9.82
2022-10-23T23:53:53.831Z,8.90
2022-10-23T23:56:21.021Z,9.68
2022-10-23T23:58:48.027Z,9.79
